Time;durP1;ratioP1;P1;durP2;ratioP2;P2;SDS_P1;SDS_P2;PMS_P1;PMS_P2;Temp;Humidity;BMP_temperature;BMP_pressure;BME280_temperature;BME280_humidity;BME280_pressure;Samples;Min_cycle;Max_cycle;Signal;HPM_P1;HPM_P2
2021/08/15 00:00:49;;;;;;;13.73;8.67;;;21.00;99.90;;;;;;5114080;28;20234;-87
2021/08/15 00:03:15;;;;;;;15.53;8.30;;;21.00;99.90;;;;;;5115340;28;20205;-87
2021/08/15 00:05:41;;;;;;;21.40;9.43;;;21.00;99.90;;;;;;5114254;28;20215;-87
2021/08/15 00:08:08;;;;;;;13.40;8.50;;;20.90;99.90;;;;;;5114154;28;20181;-87
2021/08/15 00:10:38;;;;;;;17.70;8.80;;;20.90;99.90;;;;;;5114412;28;20174;-87
2021/08/15 00:13:05;;;;;;;14.13;7.93;;;20.90;99.90;;;;;;5113927;28;20202;-87
2021/08/15 00:15:30;;;;;;;14.20;8.63;;;20.90;99.90;;;;;;5115233;28;20192;-87
2021/08/15 00:17:56;;;;;;;19.00;8.97;;;20.80;99.90;;;;;;5114581;28;20540;-87
2021/08/15 00:20:22;;;;;;;15.73;8.70;;;20.80;99.90;;;;;;5114156;28;20564;-88
2021/08/15 00:22:47;;;;;;;14.50;9.20;;;20.70;99.90;;;;;;5114313;28;20549;-87
2021/08/15 00:25:16;;;;;;;17.17;8.60;;;20.70;99.90;;;;;;5114215;28;20311;-87
2021/08/15 00:27:43;;;;;;;15.87;8.90;;;20.60;99.90;;;;;;5113681;28;20289;-87
2021/08/15 00:30:09;;;;;;;19.50;8.27;;;20.60;99.90;;;;;;5115325;28;20648;-87
2021/08/15 00:32:36;;;;;;;16.50;8.40;;;20.60;99.90;;;;;;5114221;28;20204;-87
2021/08/15 00:35:04;;;;;;;19.57;9.13;;;20.60;99.90;;;;;;5114027;28;20179;-88
2021/08/15 00:37:30;;;;;;;14.30;8.30;;;20.60;99.90;;;;;;5113939;28;20206;-87
2021/08/15 00:39:56;;;;;;;14.53;8.20;;;20.60;99.90;;;;;;5118516;28;20183;-87
2021/08/15 00:42:22;;;;;;;18.57;8.57;;;20.60;99.90;;;;;;5113968;28;20202;-87
2021/08/15 00:44:48;;;;;;;14.10;7.90;;;20.50;99.90;;;;;;5113903;28;20175;-87
2021/08/15 00:47:14;;;;;;;16.30;8.57;;;20.50;99.90;;;;;;5113761;28;20254;-87
2021/08/15 00:49:40;;;;;;;15.03;7.30;;;20.50;99.90;;;;;;5113605;28;20611;-87
2021/08/15 00:52:06;;;;;;;14.90;8.30;;;20.50;99.90;;;;;;5113764;28;20309;-87
2021/08/15 00:54:32;;;;;;;15.73;8.07;;;20.50;99.90;;;;;;5116932;28;20208;-87
2021/08/15 00:57:00;;;;;;;14.77;7.67;;;20.50;99.90;;;;;;5125373;28;20200;-87
2021/08/15 00:59:26;;;;;;;15.33;8.60;;;20.50;99.90;;;;;;5139919;28;21010;-88
2021/08/15 01:01:53;;;;;;;16.40;8.10;;;20.50;99.90;;;;;;5124805;28;20617;-88
2021/08/15 01:04:23;;;;;;;14.40;8.20;;;20.50;99.90;;;;;;5118284;28;20179;-87
2021/08/15 01:06:49;;;;;;;15.43;8.10;;;20.50;99.90;;;;;;5116977;28;20218;-87
2021/08/15 01:09:15;;;;;;;14.37;7.53;;;20.40;99.90;;;;;;5117274;28;20184;-87
2021/08/15 01:11:41;;;;;;;18.17;8.50;;;20.50;99.90;;;;;;5116925;28;20180;-87
2021/08/15 01:14:07;;;;;;;13.90;8.73;;;20.40;99.90;;;;;;5116932;28;20172;-87
2021/08/15 01:16:43;;;;;;;17.57;8.13;;;20.40;99.90;;;;;;5116868;28;20210;-87
2021/08/15 01:19:11;;;;;;;14.70;7.87;;;20.40;99.90;;;;;;5117267;28;20178;-87
2021/08/15 01:21:38;;;;;;;17.40;8.00;;;20.40;99.90;;;;;;5117029;28;20703;-87
2021/08/15 01:24:05;;;;;;;14.07;7.57;;;20.30;99.90;;;;;;5116778;28;20187;-87
2021/08/15 01:26:31;;;;;;;14.07;7.73;;;20.40;99.90;;;;;;5116643;28;20361;-87
2021/08/15 01:28:57;;;;;;;15.17;7.70;;;20.40;99.90;;;;;;5116775;28;20239;-88
2021/08/15 01:31:24;;;;;;;11.13;7.03;;;20.40;99.90;;;;;;5116789;28;20281;-87
2021/08/15 01:33:51;;;;;;;13.53;7.60;;;20.30;99.90;;;;;;5116832;28;20176;-87
2021/08/15 01:36:21;;;;;;;18.90;8.10;;;20.30;99.90;;;;;;5117397;28;20199;-87
2021/08/15 01:38:49;;;;;;;12.77;7.70;;;20.30;99.90;;;;;;5116626;28;20171;-87
2021/08/15 01:41:15;;;;;;;15.10;7.63;;;20.30;99.90;;;;;;5116737;28;20206;-87
2021/08/15 01:44:01;;;;;;;19.83;7.83;;;20.30;99.90;;;;;;5116445;28;20553;-87
2021/08/15 01:46:31;;;;;;;13.43;7.87;;;20.20;99.90;;;;;;5116455;28;20309;-87
2021/08/15 01:48:58;;;;;;;15.27;7.63;;;20.20;99.90;;;;;;5116525;28;20629;-87
2021/08/15 01:51:25;;;;;;;21.57;7.30;;;20.20;99.90;;;;;;5116412;28;20605;-87
2021/08/15 01:53:53;;;;;;;17.87;8.43;;;20.20;99.90;;;;;;5116254;28;20181;-88
2021/08/15 01:56:19;;;;;;;13.73;8.07;;;20.20;99.90;;;;;;5116353;28;20357;-87
2021/08/15 01:58:45;;;;;;;14.07;7.70;;;20.20;99.90;;;;;;5116078;28;20584;-87
2021/08/15 02:01:19;;;;;;;15.80;8.27;;;20.10;99.90;;;;;;5116147;28;20199;-87
2021/08/15 02:03:45;;;;;;;14.30;8.10;;;20.10;99.90;;;;;;5117776;28;20235;-87
2021/08/15 02:06:11;;;;;;;17.97;7.83;;;20.10;99.90;;;;;;5117965;28;20265;-86
2021/08/15 02:08:36;;;;;;;13.30;7.70;;;20.10;99.90;;;;;;5116759;28;20216;-87
2021/08/15 02:11:02;;;;;;;15.20;7.97;;;20.10;99.90;;;;;;5117242;28;20170;-87
2021/08/15 02:13:28;;;;;;;16.37;8.70;;;20.10;99.90;;;;;;5123910;28;20197;-87
2021/08/15 02:15:54;;;;;;;14.33;8.00;;;20.10;99.90;;;;;;5116070;28;20265;-87
2021/08/15 02:18:19;;;;;;;13.97;8.17;;;20.00;99.90;;;;;;5116158;28;20266;-87
2021/08/15 02:20:45;;;;;;;12.30;7.77;;;20.00;99.90;;;;;;5116185;28;20181;-87
2021/08/15 02:23:12;;;;;;;17.50;8.83;;;20.00;99.90;;;;;;5115991;28;20173;-87
2021/08/15 02:25:37;;;;;;;13.43;7.93;;;19.90;99.90;;;;;;5117324;28;20203;-87
2021/08/15 02:28:04;;;;;;;19.13;8.03;;;19.90;99.90;;;;;;5116229;28;20187;-87
2021/08/15 02:30:30;;;;;;;15.37;8.00;;;19.90;99.90;;;;;;5116220;28;20629;-87
2021/08/15 02:32:56;;;;;;;14.90;7.70;;;19.90;99.90;;;;;;5115836;28;20181;-87
2021/08/15 02:35:22;;;;;;;14.77;7.67;;;19.90;99.90;;;;;;5115864;28;20187;-87
2021/08/15 02:37:51;;;;;;;20.83;8.27;;;19.90;99.90;;;;;;5118549;28;20187;-87
2021/08/15 02:40:18;;;;;;;17.67;8.33;;;19.90;99.90;;;;;;5115814;28;20180;-87
2021/08/15 02:42:45;;;;;;;18.27;8.93;;;19.90;99.90;;;;;;5115454;28;20190;-87
2021/08/15 02:45:13;;;;;;;15.20;9.13;;;19.90;99.90;;;;;;5117166;28;20177;-87
2021/08/15 02:47:38;;;;;;;15.90;8.47;;;19.90;99.90;;;;;;5115628;28;20654;-87
2021/08/15 02:50:05;;;;;;;16.67;8.10;;;19.90;99.90;;;;;;5115576;28;20218;-87
2021/08/15 02:52:31;;;;;;;16.07;8.03;;;19.80;99.90;;;;;;5115371;28;20661;-87
2021/08/15 02:54:57;;;;;;;17.43;8.40;;;19.80;99.90;;;;;;5115883;28;20181;-87
2021/08/15 02:57:23;;;;;;;18.10;8.13;;;19.80;99.90;;;;;;5116562;28;20200;-87
2021/08/15 02:59:49;;;;;;;15.57;8.57;;;19.70;99.90;;;;;;5116578;28;20188;-87
2021/08/15 03:02:16;;;;;;;15.87;8.93;;;19.70;99.90;;;;;;5123944;28;20284;-86
2021/08/15 03:04:46;;;;;;;15.73;8.33;;;19.70;99.90;;;;;;5140149;28;20182;-91
2021/08/15 03:07:12;;;;;;;16.67;8.93;;;19.70;99.90;;;;;;5138894;28;20220;-87
2021/08/15 03:09:39;;;;;;;18.57;8.50;;;19.60;99.90;;;;;;5126765;28;20211;-87
2021/08/15 03:12:05;;;;;;;16.03;8.27;;;19.60;99.90;;;;;;5114863;28;20180;-87
2021/08/15 03:14:31;;;;;;;16.70;8.63;;;19.60;99.90;;;;;;5114795;28;20245;-87
2021/08/15 03:16:57;;;;;;;16.30;8.47;;;19.50;99.90;;;;;;5116644;28;20585;-88
2021/08/15 03:19:23;;;;;;;16.03;7.83;;;19.50;99.90;;;;;;5114659;28;20188;-88
2021/08/15 03:21:48;;;;;;;18.17;9.13;;;19.50;99.90;;;;;;5114122;28;20274;-87
2021/08/15 03:24:15;;;;;;;19.23;8.90;;;19.40;99.90;;;;;;5114470;28;20225;-87
2021/08/15 03:26:43;;;;;;;12.23;8.00;;;19.40;99.90;;;;;;5115685;28;20572;-87
2021/08/15 03:29:10;;;;;;;19.10;8.50;;;19.30;99.90;;;;;;5114653;28;20176;-87
2021/08/15 03:31:36;;;;;;;19.50;8.93;;;19.30;99.90;;;;;;5123274;28;20200;-87
2021/08/15 03:34:02;;;;;;;13.60;8.43;;;19.30;99.90;;;;;;5115380;28;20180;-88
2021/08/15 03:36:27;;;;;;;16.00;8.80;;;19.30;99.90;;;;;;5113969;28;20199;-88
2021/08/15 03:38:53;;;;;;;16.07;9.00;;;19.30;99.90;;;;;;5114231;28;20184;-87
2021/08/15 03:41:19;;;;;;;21.03;7.87;;;19.30;99.90;;;;;;5114269;28;20176;-87
2021/08/15 03:43:44;;;;;;;19.37;9.03;;;19.20;99.90;;;;;;5114161;28;20278;-87
2021/08/15 03:46:10;;;;;;;21.13;8.40;;;19.30;99.90;;;;;;5114286;28;20216;-88
2021/08/15 03:48:36;;;;;;;14.07;8.83;;;19.20;99.90;;;;;;5114647;28;20176;-87
2021/08/15 03:51:01;;;;;;;14.47;8.83;;;19.30;99.90;;;;;;5115857;28;20173;-88
2021/08/15 03:53:27;;;;;;;16.70;8.87;;;19.30;99.90;;;;;;5114407;28;20523;-88
2021/08/15 03:55:52;;;;;;;17.13;8.43;;;19.30;99.90;;;;;;5114732;28;20206;-88
2021/08/15 03:58:18;;;;;;;11.27;7.53;;;19.20;99.90;;;;;;5114638;28;20189;-87
2021/08/15 04:00:44;;;;;;;15.40;9.77;;;19.20;99.90;;;;;;5114328;28;20561;-87
2021/08/15 04:03:11;;;;;;;14.40;7.93;;;19.20;99.90;;;;;;5114491;28;20204;-88
2021/08/15 04:05:38;;;;;;;16.53;8.30;;;19.10;99.90;;;;;;5114292;28;20205;-87
2021/08/15 04:08:07;;;;;;;12.83;8.53;;;19.20;99.90;;;;;;5114656;28;20181;-87
2021/08/15 04:10:34;;;;;;;15.47;8.37;;;19.10;99.90;;;;;;5114690;28;20195;-88
2021/08/15 04:12:59;;;;;;;12.37;8.17;;;19.10;99.90;;;;;;5114174;28;20173;-88
2021/08/15 04:15:26;;;;;;;18.70;8.93;;;19.10;99.90;;;;;;5114453;28;20237;-87
2021/08/15 04:17:52;;;;;;;17.93;8.47;;;19.00;99.90;;;;;;5114612;28;20188;-87
2021/08/15 04:20:17;;;;;;;22.67;9.50;;;19.10;99.90;;;;;;5115882;28;20253;-88
2021/08/15 04:22:43;;;;;;;10.87;8.20;;;19.00;99.90;;;;;;5115841;28;20585;-87
2021/08/15 04:25:09;;;;;;;17.07;8.87;;;19.00;99.90;;;;;;5114729;28;20260;-87
2021/08/15 04:27:35;;;;;;;13.83;8.03;;;19.00;99.90;;;;;;5114683;28;20197;-87
2021/08/15 04:30:01;;;;;;;18.77;8.47;;;19.00;99.90;;;;;;5116026;28;20196;-88
2021/08/15 04:32:26;;;;;;;15.33;8.50;;;18.90;99.90;;;;;;5114692;28;20177;-87
2021/08/15 04:34:52;;;;;;;16.37;8.57;;;18.90;99.90;;;;;;5117100;28;20245;-87
2021/08/15 04:37:18;;;;;;;15.30;9.20;;;18.90;99.90;;;;;;5118879;28;20614;-88
2021/08/15 04:39:45;;;;;;;13.80;8.70;;;18.90;99.90;;;;;;5118921;28;20623;-87
2021/08/15 04:42:11;;;;;;;17.97;9.53;;;18.80;99.90;;;;;;5119077;28;20650;-87
2021/08/15 04:44:37;;;;;;;19.03;9.47;;;18.80;99.90;;;;;;5119011;28;20631;-87
2021/08/15 04:47:03;;;;;;;17.60;8.67;;;18.80;99.90;;;;;;5118581;28;20218;-87
2021/08/15 04:49:28;;;;;;;18.87;8.30;;;18.80;99.90;;;;;;5126571;28;20693;-87
2021/08/15 04:51:55;;;;;;;18.47;8.67;;;18.80;99.90;;;;;;5118606;28;20179;-87
2021/08/15 04:54:26;;;;;;;14.70;8.70;;;18.80;99.90;;;;;;5118403;28;20551;-87
2021/08/15 04:56:52;;;;;;;19.10;9.10;;;18.80;99.90;;;;;;5118214;28;20563;-87
2021/08/15 04:59:18;;;;;;;15.50;8.53;;;18.80;99.90;;;;;;5119849;28;20260;-87
2021/08/15 05:01:43;;;;;;;11.90;8.50;;;18.90;99.90;;;;;;5118101;28;20626;-87
2021/08/15 05:04:09;;;;;;;18.00;8.73;;;18.80;99.90;;;;;;5118686;28;20209;-86
2021/08/15 05:06:34;;;;;;;16.13;8.77;;;18.90;99.90;;;;;;5120008;28;20724;-87
2021/08/15 05:09:00;;;;;;;13.10;8.33;;;18.90;99.90;;;;;;5135989;28;20164;-86
2021/08/15 05:11:26;;;;;;;20.87;8.43;;;18.90;99.90;;;;;;5141433;28;20157;-87
2021/08/15 05:13:51;;;;;;;15.93;7.90;;;18.90;99.90;;;;;;5118445;28;20177;-87
2021/08/15 05:16:17;;;;;;;19.50;8.37;;;18.90;99.90;;;;;;5118416;28;20198;-87
2021/08/15 05:18:43;;;;;;;16.97;7.30;;;19.00;99.90;;;;;;5118115;28;20200;-87
2021/08/15 05:21:08;;;;;;;14.70;8.47;;;19.00;99.90;;;;;;5118684;28;20185;-87
2021/08/15 05:23:34;;;;;;;18.70;7.80;;;19.10;99.90;;;;;;5119748;28;20525;-87
2021/08/15 05:26:00;;;;;;;17.33;8.17;;;19.10;99.90;;;;;;5118148;28;20573;-87
2021/08/15 05:28:25;;;;;;;16.67;8.67;;;19.10;99.90;;;;;;5119657;28;20227;-86
2021/08/15 05:30:51;;;;;;;13.57;8.43;;;19.10;99.90;;;;;;5118333;28;20270;-87
2021/08/15 05:33:17;;;;;;;15.50;7.77;;;19.20;99.90;;;;;;5119994;28;20165;-86
2021/08/15 05:35:42;;;;;;;14.27;8.10;;;19.20;99.90;;;;;;5117936;28;20654;-87
2021/08/15 05:38:08;;;;;;;13.77;7.77;;;19.20;99.90;;;;;;5117765;28;20235;-87
2021/08/15 05:40:34;;;;;;;14.07;8.27;;;19.30;99.90;;;;;;5117504;28;20182;-87
2021/08/15 05:42:59;;;;;;;10.70;7.73;;;19.30;99.90;;;;;;5117344;28;20266;-87
2021/08/15 05:45:26;;;;;;;13.20;7.67;;;19.40;99.90;;;;;;5117062;28;20196;-87
2021/08/15 05:47:52;;;;;;;14.77;7.70;;;19.40;99.90;;;;;;5117528;28;20178;-87
2021/08/15 05:50:17;;;;;;;13.50;7.60;;;19.50;99.90;;;;;;5117906;28;20174;-87
2021/08/15 05:52:43;;;;;;;10.87;7.37;;;19.60;99.90;;;;;;5118035;28;20178;-87
2021/08/15 05:55:09;;;;;;;16.53;7.70;;;19.70;99.90;;;;;;5117617;28;20174;-87
2021/08/15 05:57:35;;;;;;;14.60;7.10;;;19.70;99.90;;;;;;5117409;28;20199;-87
2021/08/15 06:00:02;;;;;;;15.37;7.97;;;19.80;99.90;;;;;;5117381;28;20172;-87
2021/08/15 06:02:28;;;;;;;13.47;7.73;;;19.80;99.90;;;;;;5118078;28;20165;-87
2021/08/15 06:04:53;;;;;;;14.30;8.23;;;19.90;99.90;;;;;;5121242;28;20178;-86
2021/08/15 06:07:19;;;;;;;15.80;7.47;;;20.00;99.90;;;;;;5123040;28;20215;-87
2021/08/15 06:09:44;;;;;;;11.80;7.50;;;20.10;99.90;;;;;;5119448;28;20179;-87
2021/08/15 06:12:10;;;;;;;14.73;7.97;;;20.10;99.90;;;;;;5118804;28;20179;-87
2021/08/15 06:14:36;;;;;;;12.80;6.77;;;20.20;99.90;;;;;;5120263;28;20641;-87
2021/08/15 06:17:02;;;;;;;12.60;7.53;;;20.20;99.90;;;;;;5119136;28;20738;-87
2021/08/15 06:19:28;;;;;;;14.67;7.97;;;20.30;99.90;;;;;;5126017;28;20205;-86
2021/08/15 06:21:54;;;;;;;18.17;6.87;;;20.30;99.90;;;;;;5139181;28;20163;-86
2021/08/15 06:24:19;;;;;;;15.53;7.20;;;20.40;99.90;;;;;;5138768;28;20183;-87
2021/08/15 06:26:45;;;;;;;14.63;6.97;;;20.50;99.90;;;;;;5118695;28;20219;-88
2021/08/15 06:29:11;;;;;;;16.77;7.67;;;20.50;99.90;;;;;;5116531;28;20176;-87
2021/08/15 06:31:36;;;;;;;12.60;7.30;;;20.60;99.90;;;;;;5117880;28;20171;-87
2021/08/15 06:34:02;;;;;;;15.40;7.63;;;20.70;99.90;;;;;;5116192;28;20187;-87
2021/08/15 06:36:28;;;;;;;13.80;6.83;;;20.70;99.90;;;;;;5116239;28;20202;-87
2021/08/15 06:38:54;;;;;;;19.00;8.57;;;20.80;99.90;;;;;;5117651;28;20320;-87
2021/08/15 06:41:20;;;;;;;13.77;8.17;;;20.90;99.90;;;;;;5116152;28;20180;-87
2021/08/15 06:43:46;;;;;;;18.70;7.60;;;21.00;99.90;;;;;;5116254;28;20225;-88
2021/08/15 06:46:12;;;;;;;21.37;7.53;;;21.10;99.90;;;;;;5116015;28;20692;-87
2021/08/15 06:48:39;;;;;;;17.23;7.43;;;21.20;99.90;;;;;;5116422;28;20263;-87
2021/08/15 06:51:05;;;;;;;16.73;7.60;;;21.30;99.90;;;;;;5116817;28;20203;-87
2021/08/15 06:53:32;;;;;;;12.57;7.27;;;21.40;99.90;;;;;;5116555;28;20171;-87
2021/08/15 06:55:59;;;;;;;12.97;7.70;;;21.50;99.90;;;;;;5117384;28;20241;-87
2021/08/15 06:58:26;;;;;;;20.80;8.00;;;21.60;99.90;;;;;;5115880;28;20178;-87
2021/08/15 07:00:52;;;;;;;11.77;6.67;;;21.70;99.90;;;;;;5116380;28;20211;-87
2021/08/15 07:03:18;;;;;;;16.33;8.00;;;21.80;99.90;;;;;;5116695;28;20272;-87
2021/08/15 07:05:44;;;;;;;13.63;7.57;;;21.90;99.90;;;;;;5116950;28;20207;-87
2021/08/15 07:08:10;;;;;;;18.93;7.60;;;22.00;99.90;;;;;;5116835;28;20199;-87
2021/08/15 07:10:35;;;;;;;14.27;7.67;;;22.00;99.90;;;;;;5116276;28;20171;-87
2021/08/15 07:13:06;;;;;;;16.00;7.33;;;22.10;99.90;;;;;;5121226;28;20170;-86
2021/08/15 07:15:31;;;;;;;15.00;7.93;;;22.20;99.90;;;;;;5137508;28;20200;-86
2021/08/15 07:17:58;;;;;;;16.83;8.27;;;22.30;99.90;;;;;;5138722;28;20168;-87
2021/08/15 07:20:24;;;;;;;17.73;7.93;;;22.40;99.90;;;;;;5122879;28;20179;-87
2021/08/15 07:22:50;;;;;;;18.77;8.60;;;22.50;99.90;;;;;;5116372;28;20573;-87
2021/08/15 07:25:16;;;;;;;13.57;8.30;;;22.60;99.90;;;;;;5115563;28;20176;-87
2021/08/15 07:27:42;;;;;;;12.90;8.30;;;22.70;99.90;;;;;;5115253;28;20536;-87
2021/08/15 07:30:09;;;;;;;17.70;8.20;;;22.80;99.90;;;;;;5115479;28;20531;-86
2021/08/15 07:32:35;;;;;;;12.07;7.57;;;23.00;99.90;;;;;;5116064;28;20172;-86
2021/08/15 07:35:01;;;;;;;15.73;8.17;;;23.10;99.90;;;;;;5117528;28;20225;-87
2021/08/15 07:37:28;;;;;;;21.17;8.43;;;23.20;99.90;;;;;;5116150;28;20223;-87
2021/08/15 07:39:53;;;;;;;17.50;8.60;;;23.30;99.90;;;;;;5117633;28;20179;-88
2021/08/15 07:42:20;;;;;;;16.57;8.10;;;23.40;99.90;;;;;;5115985;28;20587;-86
2021/08/15 07:44:48;;;;;;;14.77;7.73;;;23.50;99.90;;;;;;5117900;28;20207;-88
2021/08/15 07:47:14;;;;;;;14.27;7.90;;;23.50;99.90;;;;;;5116659;28;20239;-86
2021/08/15 07:49:40;;;;;;;19.00;7.93;;;23.60;99.90;;;;;;5117469;28;20182;-86
2021/08/15 07:52:05;;;;;;;15.50;8.00;;;23.80;99.90;;;;;;5121670;28;20172;-87
2021/08/15 07:54:31;;;;;;;12.27;7.90;;;23.90;99.90;;;;;;5118978;28;20232;-87
2021/08/15 07:56:58;;;;;;;13.67;7.80;;;24.10;99.90;;;;;;5116438;28;20252;-87
2021/08/15 07:59:25;;;;;;;12.90;7.57;;;24.20;99.90;;;;;;5115841;28;20191;-86
2021/08/15 08:01:51;;;;;;;16.30;7.97;;;24.30;99.90;;;;;;5116116;28;20191;-86
2021/08/15 08:04:17;;;;;;;14.80;7.37;;;24.50;99.90;;;;;;5116328;28;20182;-86
2021/08/15 08:06:43;;;;;;;16.20;7.50;;;24.60;99.90;;;;;;5115260;28;20231;-86
2021/08/15 08:09:09;;;;;;;17.63;8.27;;;24.60;99.90;;;;;;5120067;28;20179;-87
2021/08/15 08:11:34;;;;;;;15.80;7.87;;;24.80;99.90;;;;;;5122590;28;20171;-86
2021/08/15 08:14:00;;;;;;;14.93;8.13;;;24.90;99.90;;;;;;5123425;27;20168;-86
2021/08/15 08:16:26;;;;;;;13.23;7.77;;;25.10;99.90;;;;;;5122147;28;20757;-86
2021/08/15 08:18:52;;;;;;;19.30;8.10;;;25.20;99.90;;;;;;5122152;28;20186;-86
2021/08/15 08:21:17;;;;;;;16.83;8.67;;;25.30;99.90;;;;;;5121996;28;20254;-86
2021/08/15 08:23:43;;;;;;;17.50;8.10;;;25.40;99.90;;;;;;5121974;28;20182;-86
2021/08/15 08:26:09;;;;;;;14.03;8.43;;;25.50;99.90;;;;;;5122968;28;20211;-86
2021/08/15 08:28:35;;;;;;;11.83;7.83;;;25.60;99.90;;;;;;5123539;27;20627;-87
2021/08/15 08:31:00;;;;;;;14.90;7.67;;;25.80;99.90;;;;;;5122600;28;20641;-87
2021/08/15 08:33:27;;;;;;;13.97;8.20;;;25.90;99.90;;;;;;5121350;28;20214;-86
2021/08/15 08:35:53;;;;;;;13.03;7.93;;;26.00;99.90;;;;;;5122226;28;20245;-86
2021/08/15 08:38:19;;;;;;;15.50;7.80;;;26.20;99.90;;;;;;5121773;28;20262;-87
2021/08/15 08:40:47;;;;;;;15.63;8.07;;;26.30;99.90;;;;;;5121958;28;20186;-87
2021/08/15 08:43:13;;;;;;;19.20;7.63;;;26.50;99.90;;;;;;5120857;28;20190;-86
2021/08/15 08:45:45;;;;;;;14.30;7.87;;;26.60;99.90;;;;;;5122480;27;20687;-87
2021/08/15 08:48:11;;;;;;;15.47;8.03;;;26.70;99.90;;;;;;5122297;27;20162;-87
2021/08/15 08:50:37;;;;;;;19.70;7.47;;;26.70;99.90;;;;;;5122154;27;20184;-86
2021/08/15 08:53:03;;;;;;;14.90;7.13;;;26.80;99.90;;;;;;5120673;28;20176;-86
2021/08/15 08:55:29;;;;;;;16.50;7.57;;;26.80;99.90;;;;;;5120783;28;20176;-87
2021/08/15 08:57:54;;;;;;;18.47;7.87;;;26.90;99.90;;;;;;5120665;28;20177;-87
2021/08/15 09:00:20;;;;;;;12.87;7.60;;;27.00;99.90;;;;;;5120705;28;20184;-87
2021/08/15 09:02:46;;;;;;;19.33;7.80;;;27.20;99.90;;;;;;5120555;28;20593;-87
2021/08/15 09:05:12;;;;;;;17.23;8.00;;;27.30;99.90;;;;;;5121431;27;20240;-87
2021/08/15 09:07:40;;;;;;;18.77;7.40;;;27.40;99.90;;;;;;5121746;27;20202;-87
2021/08/15 09:10:09;;;;;;;18.87;7.87;;;27.50;99.90;;;;;;5120628;28;20179;-87
2021/08/15 09:12:43;;;;;;;12.73;7.43;;;27.40;99.90;;;;;;5120399;28;20181;-87
2021/08/15 09:15:16;;;;;;;12.10;7.00;;;27.20;99.90;;;;;;5120540;28;20242;-87
2021/08/15 09:17:43;;;;;;;20.43;8.00;;;26.90;99.90;;;;;;5122799;27;20204;-87
2021/08/15 09:20:11;;;;;;;14.97;7.37;;;26.80;99.90;;;;;;5137591;27;20201;-87
2021/08/15 09:22:37;;;;;;;19.50;8.60;;;26.70;99.90;;;;;;5142111;28;20197;-88
2021/08/15 09:25:05;;;;;;;15.30;7.77;;;26.60;99.90;;;;;;5124539;28;20237;-87
2021/08/15 09:27:32;;;;;;;13.93;7.67;;;26.60;99.90;;;;;;5118165;28;20218;-86
2021/08/15 09:30:21;;;;;;;15.33;7.40;;;26.80;99.90;;;;;;5118820;28;20176;-87
2021/08/15 09:33:12;;;;;;;11.93;7.47;;;26.90;99.90;;;;;;5120067;28;20558;-87
2021/08/15 09:35:42;;;;;;;16.17;7.77;;;27.00;99.90;;;;;;5133715;28;20186;-87
2021/08/15 09:38:14;;;;;;;17.73;8.30;;;27.00;99.90;;;;;;5139512;28;20216;-87
2021/08/15 09:40:43;;;;;;;13.00;8.10;;;26.80;99.90;;;;;;5123238;28;20180;-87
2021/08/15 09:43:11;;;;;;;18.97;8.70;;;26.80;99.90;;;;;;5116549;28;20181;-87
2021/08/15 09:45:40;;;;;;;12.53;7.53;;;26.70;99.90;;;;;;5116551;28;20219;-87
2021/08/15 09:48:15;;;;;;;13.87;7.50;;;26.90;99.90;;;;;;5116795;28;20209;-87
2021/08/15 09:50:41;;;;;;;17.73;8.27;;;27.40;99.90;;;;;;5116754;28;20176;-87
2021/08/15 09:53:07;;;;;;;12.87;7.30;;;27.60;99.90;;;;;;5116239;28;20234;-87
2021/08/15 09:55:45;;;;;;;19.60;7.53;;;27.80;99.90;;;;;;5116492;28;20254;-87
2021/08/15 09:58:18;;;;;;;15.43;7.37;;;28.20;99.90;;;;;;5116802;28;20189;-87
2021/08/15 10:00:44;;;;;;;15.50;7.57;;;28.30;99.90;;;;;;5117547;28;20598;-87
2021/08/15 10:03:10;;;;;;;14.90;7.20;;;28.60;99.90;;;;;;5116195;28;20262;-87
2021/08/15 10:05:36;;;;;;;12.17;7.13;;;28.90;99.90;;;;;;5115736;28;20305;-87
2021/08/15 10:08:02;;;;;;;16.40;7.40;;;29.20;99.90;;;;;;5116300;28;20269;-87
2021/08/15 10:10:28;;;;;;;12.47;6.90;;;29.50;99.90;;;;;;5117288;28;20173;-87
2021/08/15 10:12:54;;;;;;;13.03;6.40;;;29.70;99.90;;;;;;5117127;27;20253;-87
2021/08/15 10:15:20;;;;;;;13.73;6.43;;;29.90;99.90;;;;;;5115841;28;20239;-87
2021/08/15 10:17:50;;;;;;;13.77;6.93;;;29.90;99.90;;;;;;5117004;28;20192;-87
2021/08/15 10:20:27;;;;;;;14.50;6.53;;;30.10;99.90;;;;;;5116879;28;20175;-87
2021/08/15 10:23:09;;;;;;;14.23;6.23;;;30.30;99.90;;;;;;5117018;28;20648;-87
2021/08/15 10:25:40;;;;;;;19.20;9.07;;;30.40;99.90;;;;;;5115676;28;20319;-87
2021/08/15 10:28:07;;;;;;;11.47;6.23;;;30.50;99.90;;;;;;5115655;28;20238;-87
2021/08/15 10:30:32;;;;;;;13.67;6.60;;;30.60;99.90;;;;;;5115797;28;20249;-87
2021/08/15 10:32:58;;;;;;;15.03;6.40;;;30.60;99.90;;;;;;5114094;28;20181;-87
2021/08/15 10:35:30;;;;;;;13.87;6.40;;;30.40;99.90;;;;;;5115461;28;20178;-88
2021/08/15 10:37:59;;;;;;;11.43;5.97;;;30.40;99.90;;;;;;5115436;28;20181;-87
2021/08/15 10:40:42;;;;;;;11.27;6.17;;;30.50;99.90;;;;;;5115494;28;20177;-87
2021/08/15 10:43:10;;;;;;;16.53;6.13;;;30.60;99.90;;;;;;5115072;28;20173;-87
2021/08/15 10:45:36;;;;;;;13.93;6.47;;;30.70;99.90;;;;;;5115048;28;20216;-88
2021/08/15 10:48:05;;;;;;;10.07;6.40;;;30.80;99.90;;;;;;5115403;28;20265;-87
2021/08/15 10:50:43;;;;;;;14.57;6.20;;;30.80;99.90;;;;;;5115086;28;20183;-87
2021/08/15 10:53:30;;;;;;;12.27;6.60;;;31.00;99.90;;;;;;5114832;28;20177;-88
2021/08/15 10:55:57;;;;;;;15.57;6.17;;;31.20;99.90;;;;;;5114857;28;20199;-87
2021/08/15 10:58:47;;;;;;;17.60;6.53;;;31.40;99.90;;;;;;5115020;28;20518;-88
2021/08/15 11:01:39;;;;;;;11.90;5.40;;;31.50;99.90;;;;;;5115190;28;20549;-88
2021/08/15 11:04:05;;;;;;;20.57;6.43;;;31.60;99.90;;;;;;5097102;28;20199;-88
2021/08/15 11:06:31;;;;;;;13.93;6.13;;;31.60;99.90;;;;;;5115011;28;20218;-88
2021/08/15 11:09:07;;;;;;;11.77;5.70;;;31.60;99.90;;;;;;5114749;28;20207;-88
2021/08/15 11:11:35;;;;;;;14.73;6.03;;;31.60;99.90;;;;;;5114979;28;20584;-88
2021/08/15 11:14:20;;;;;;;18.03;7.37;;;31.70;99.90;;;;;;5114746;28;20182;-88
2021/08/15 11:16:51;;;;;;;14.47;5.90;;;31.90;99.90;;;;;;5115889;28;20199;-88
2021/08/15 11:19:17;;;;;;;10.87;6.07;;;31.70;99.90;;;;;;5114540;28;20544;-88
2021/08/15 11:22:15;;;;;;;10.67;5.57;;;31.70;99.90;;;;;;5114794;28;20637;-88
2021/08/15 11:24:44;;;;;;;11.57;5.93;;;31.50;99.90;;;;;;5123232;28;20188;-87
2021/08/15 11:27:16;;;;;;;10.80;5.20;;;31.70;99.90;;;;;;5138703;28;20233;-88
2021/08/15 11:29:44;;;;;;;9.93;5.77;;;31.80;99.90;;;;;;5130065;28;20172;-88
2021/08/15 11:32:22;;;;;;;9.33;5.90;;;31.80;99.90;;;;;;5115756;27;20517;-88
2021/08/15 11:35:01;;;;;;;12.07;6.67;;;31.80;99.90;;;;;;5116220;28;20171;-88
2021/08/15 11:37:32;;;;;;;13.17;6.03;;;31.80;99.90;;;;;;5114296;28;20195;-88
2021/08/15 11:40:26;;;;;;;20.47;5.53;;;31.80;99.90;;;;;;5114375;28;20259;-88
2021/08/15 11:43:22;;;;;;;11.57;6.97;;;32.20;99.90;;;;;;5113866;28;20169;-88
2021/08/15 11:45:54;;;;;;;10.07;6.63;;;32.30;99.90;;;;;;5101615;28;20575;-88
2021/08/15 11:48:26;;;;;;;10.90;5.97;;;32.70;99.90;;;;;;5115660;28;20173;-88
2021/08/15 11:50:58;;;;;;;11.97;5.60;;;33.00;99.90;;;;;;5114412;28;20554;-88
2021/08/15 11:53:24;;;;;;;13.03;5.60;;;33.30;99.90;;;;;;5114287;28;20181;-88
2021/08/15 11:55:52;;;;;;;12.87;5.63;;;33.40;99.90;;;;;;5114373;28;20202;-88
2021/08/15 11:58:19;;;;;;;16.93;6.30;;;33.50;99.90;;;;;;5114093;28;20181;-87
2021/08/15 12:00:45;;;;;;;10.63;5.73;;;33.60;99.90;;;;;;5115279;28;20200;-88
2021/08/15 12:03:20;;;;;;;8.03;5.70;;;33.50;99.90;;;;;;5113788;28;20224;-88
2021/08/15 12:05:50;;;;;;;15.33;5.77;;;33.60;99.90;;;;;;5114938;28;20231;-87
2021/08/15 12:08:18;;;;;;;16.90;6.87;;;33.40;99.90;;;;;;5114301;28;20176;-88
2021/08/15 12:10:47;;;;;;;13.93;6.80;;;33.10;99.90;;;;;;5113916;28;20237;-88
2021/08/15 12:13:34;;;;;;;12.43;5.67;;;32.80;99.90;;;;;;5114035;28;20197;-88
2021/08/15 12:16:00;;;;;;;12.60;5.63;;;33.00;99.90;;;;;;5114002;28;20192;-88
2021/08/15 12:18:42;;;;;;;14.00;6.83;;;33.20;99.90;;;;;;5114154;28;20186;-88
2021/08/15 12:21:17;;;;;;;10.63;6.07;;;33.30;99.90;;;;;;5114141;28;20173;-87
2021/08/15 12:24:16;;;;;;;10.87;6.23;;;33.40;99.90;;;;;;5113882;28;20185;-87
2021/08/15 12:26:55;;;;;;;11.13;5.80;;;33.20;99.90;;;;;;5114997;28;20205;-87
2021/08/15 12:29:33;;;;;;;10.67;5.93;;;33.40;99.90;;;;;;5114425;28;20171;-87
2021/08/15 12:32:17;;;;;;;9.30;5.70;;;33.60;99.90;;;;;;5114129;28;20759;-88
2021/08/15 12:34:45;;;;;;;11.13;5.73;;;33.70;99.90;;;;;;5114645;28;20195;-88
2021/08/15 12:37:17;;;;;;;10.77;5.83;;;33.80;99.90;;;;;;5114471;28;20195;-88
2021/08/15 12:39:45;;;;;;;12.20;6.00;;;33.50;99.90;;;;;;5122850;28;20186;-88
2021/08/15 12:42:18;;;;;;;11.50;6.93;;;33.00;99.90;;;;;;5115788;28;20177;-88